Map

Track Data

SID SEASON NUMBER BASIN SUBBASIN NAME ISO_TIME NATURE LAT LON WMO_WIND WMO_PRES WMO_AGENCY TRACK_TYPE DIST2LAND LANDFALL IFLAG USA_AGENCY USA_ATCF_ID USA_LAT USA_LON USA_RECORD USA_STATUS USA_WIND USA_PRES USA_SSHS USA_R34_NE USA_R34_SE USA_R34_SW USA_R34_NW USA_R50_NE USA_R50_SE USA_R50_SW USA_R50_NW USA_R64_NE USA_R64_SE USA_R64_SW USA_R64_NW USA_POCI USA_ROCI USA_RMW USA_EYE TOKYO_LAT TOKYO_LON TOKYO_GRADE TOKYO_WIND TOKYO_PRES TOKYO_R50_DIR TOKYO_R50_LONG TOKYO_R50_SHORT TOKYO_R30_DIR TOKYO_R30_LONG TOKYO_R30_SHORT TOKYO_LAND CMA_LAT CMA_LON CMA_CAT CMA_WIND CMA_PRES HKO_LAT HKO_LON HKO_CAT HKO_WIND HKO_PRES NEWDELHI_LAT NEWDELHI_LON NEWDELHI_GRADE NEWDELHI_WIND NEWDELHI_PRES NEWDELHI_CI NEWDELHI_DP NEWDELHI_POCI REUNION_LAT REUNION_LON REUNION_TYPE REUNION_WIND REUNION_PRES REUNION_TNUM REUNION_CI REUNION_RMW REUNION_R34_NE REUNION_R34_SE REUNION_R34_SW REUNION_R34_NW REUNION_R50_NE REUNION_R50_SE REUNION_R50_SW REUNION_R50_NW REUNION_R64_NE REUNION_R64_SE REUNION_R64_SW REUNION_R64_NW BOM_LAT BOM_LON BOM_TYPE BOM_WIND BOM_PRES BOM_TNUM BOM_CI BOM_RMW BOM_R34_NE BOM_R34_SE BOM_R34_SW BOM_R34_NW BOM_R50_NE BOM_R50_SE BOM_R50_SW BOM_R50_NW BOM_R64_NE BOM_R64_SE BOM_R64_SW BOM_R64_NW BOM_ROCI BOM_POCI BOM_EYE BOM_POS_METHOD BOM_PRES_METHOD NADI_LAT NADI_LON NADI_CAT NADI_WIND NADI_PRES WELLINGTON_LAT WELLINGTON_LON WELLINGTON_WIND WELLINGTON_PRES DS824_LAT DS824_LON DS824_STAGE DS824_WIND DS824_PRES TD9636_LAT TD9636_LON TD9636_STAGE TD9636_WIND TD9636_PRES TD9635_LAT TD9635_LON TD9635_WIND TD9635_PRES TD9635_ROCI NEUMANN_LAT NEUMANN_LON NEUMANN_CLASS NEUMANN_WIND NEUMANN_PRES MLC_LAT MLC_LON MLC_CLASS MLC_WIND MLC_PRES USA_GUST BOM_GUST BOM_GUST_PER REUNION_GUST REUNION_GUST_PER USA_SEAHGT USA_SEARAD_NE USA_SEARAD_SE USA_SEARAD_SW USA_SEARAD_NW STORM_SPEED STORM_DIR
1948193S25153 1949 44 SP EA NOT_NAMED 1948-07-10 12:00:00 TS -25.2000 152.900 main 10 10 O________O____ jtwc_sh SH011949 -25.2000 152.900 -1 -25.2000 152.900 TC 1 75
1948193S25153 1949 44 SP EA NOT_NAMED 1948-07-10 15:00:00 TS -25.1900 152.953 main 0 0 P________P____ SH011949 -25.1900 152.953 -1 -25.1900 152.953 TC 1 90
1948193S25153 1949 44 SP EA NOT_NAMED 1948-07-10 18:00:00 TS -25.2000 153.000 main 0 0 O________O____ jtwc_sh SH011949 -25.2000 153.000 -1 -25.2000 153.000 TC 1 123
1948193S25153 1949 44 SP EA NOT_NAMED 1948-07-10 21:00:00 TS -25.2425 153.043 main 0 0 P________P____ SH011949 -25.2425 153.043 -1 -25.2425 153.043 TC 1 140
1948193S25153 1949 44 SP EA NOT_NAMED 1948-07-11 00:00:00 TS -25.3000 153.100 main 0 0 O________O____ jtwc_sh SH011949 -25.3000 153.100 -1 -25.3000 153.100 TC 2 127
1948193S25153 1949 44 SP EA NOT_NAMED 1948-07-11 03:00:00 TS -25.3425 153.193 main 0 0 P________P____ SH011949 -25.3425 153.193 -1 -25.3425 153.193 TC 2 119
1948193S25153 1949 44 SP EA NOT_NAMED 1948-07-11 06:00:00 TS -25.4000 153.300 main 10 10 O________O____ jtwc_sh SH011949 -25.4000 153.300 -1 -25.4000 153.300 TC 2 129
1948193S25153 1949 44 SP EA NOT_NAMED 1948-07-11 09:00:00 TS -25.4925 153.400 main 20 20 P________P____ SH011949 -25.4925 153.400 -1 -25.4925 153.400 TC 3 138
1948193S25153 1949 44 SP EA NOT_NAMED 1948-07-11 12:00:00 TS -25.6000 153.500 main 32 32 O________O____ jtwc_sh SH011949 -25.6000 153.500 -1 -25.6000 153.500 TC 3 138
1948193S25153 1949 44 SP EA NOT_NAMED 1948-07-11 15:00:00 TS -25.6925 153.600 main 45 45 P________P____ SH011949 -25.6925 153.600 -1 -25.6925 153.600 TC 3 138
1948193S25153 1949 44 SP EA NOT_NAMED 1948-07-11 18:00:00 TS -25.8000 153.700 main 60 59 O________O____ jtwc_sh SH011949 -25.8000 153.700 -1 -25.8000 153.700 TC 3 144
1948193S25153 1949 44 SP EA NOT_NAMED 1948-07-11 21:00:00 TS -25.9425 153.800 main 69 69 P________P____ SH011949 -25.9425 153.800 -1 -25.9425 153.800 TC 4 149
1948193S25153 1949 44 SP EA NOT_NAMED 1948-07-12 00:00:00 TS -26.1000 153.900 main 79 79 O________O____ jtwc_sh SH011949 -26.1000 153.900 -1 -26.1000 153.900 TC 4 149
1948193S25153 1949 44 SP EA NOT_NAMED 1948-07-12 03:00:00 TS -26.2425 154.000 main 89 89 P________P____ SH011949 -26.2425 154.000 -1 -26.2425 154.000 TC 4 149
1948193S25153 1949 44 SP EA NOT_NAMED 1948-07-12 06:00:00 TS -26.4000 154.100 main 99 99 O________O____ jtwc_sh SH011949 -26.4000 154.100 -1 -26.4000 154.100 TC 4 152
1948193S25153 1949 44 SP EA NOT_NAMED 1948-07-12 09:00:00 TS -26.5850 154.208 main 109 108 P________P____ SH011949 -26.5850 154.208 -1 -26.5850 154.208 TC 4 156
1948193S25153 1949 44 SP EA NOT_NAMED 1948-07-12 12:00:00 TS -26.8000 154.300 main 113 109 O________O____ jtwc_sh SH011949 -26.8000 154.300 -1 -26.8000 154.300 TC 5 162
1948193S25153 1949 44 SP EA NOT_NAMED 1948-07-12 15:00:00 TS -27.0500 154.372 main 119 110 P________P____ SH011949 -27.0500 154.372 -1 -27.0500 154.372 TC 5 170
1948193S25153 1949 44 SP EA NOT_NAMED 1948-07-12 18:00:00 TS -27.3000 154.400 main 110 108 O________O____ jtwc_sh SH011949 -27.3000 154.400 -1 -27.3000 154.400 TC 5 0
1948193S25153 1949 44 SP EA NOT_NAMED 1948-07-12 21:00:00 TS -27.5150 154.365 main 108 88 P________P____ SH011949 -27.5150 154.365 -1 -27.5150 154.365 TC 4 192
1948193S25153 1949 44 SP EA NOT_NAMED 1948-07-13 00:00:00 TS -27.7000 154.300 main 88 76 O________O____ jtwc_sh SH011949 -27.7000 154.300 -1 -27.7000 154.300 TC 4 195
1948193S25153 1949 44 SP EA NOT_NAMED 1948-07-13 03:00:00 TS -27.8650 154.257 main 76 62 P________P____ SH011949 -27.8650 154.257 -1 -27.8650 154.257 TC 3 196
1948193S25153 1949 44 SP EA NOT_NAMED 1948-07-13 06:00:00 TS -28.0000 154.200 main 62 50 O________O____ jtwc_sh SH011949 -28.0000 154.200 -1 -28.0000 154.200 TC 3 205
1948193S25153 1949 44 SP EA NOT_NAMED 1948-07-13 09:00:00 TS -28.1150 154.122 main 50 39 P________P____ SH011949 -28.1150 154.122 -1 -28.1150 154.122 TC 3 222
1948193S25153 1949 44 SP EA NOT_NAMED 1948-07-13 12:00:00 TS -28.2000 154.000 main 39 19 O________O____ jtwc_sh SH011949 -28.2000 154.000 -1 -28.2000 154.000 TC 3 244
1948193S25153 1949 44 SP EA NOT_NAMED 1948-07-13 15:00:00 TS -28.2501 153.807 main 22 9 P________P____ SH011949 -28.2501 153.807 -1 -28.2501 153.807 TC 4 254
1948193S25153 1949 44 SP EA NOT_NAMED 1948-07-13 18:00:00 TS -28.3000 153.600 main 9 0 O________O____ jtwc_sh SH011949 -28.3000 153.600 -1 -28.3000 153.600 TC 4 250
1948193S25153 1949 44 SP EA NOT_NAMED 1948-07-13 21:00:00 TS -28.3924 153.368 main 0 0 P________P____ SH011949 -28.3924 153.368 -1 -28.3924 153.368 TC 3 233
1948193S25153 1949 44 SP EA NOT_NAMED 1948-07-14 00:00:00 TS -28.5000 153.300 main 0 0 O________O____ jtwc_sh SH011949 -28.5000 153.300 -1 -28.5000 153.300 TC 3 140
1948193S25153 1949 44 SP EA NOT_NAMED 1948-07-14 03:00:00 TS -28.5926 153.560 main 0 0 P________P____ SH011949 -28.5926 153.560 -1 -28.5926 153.560 TC 6 108
1948193S25153 1949 44 SP EA NOT_NAMED 1948-07-14 06:00:00 TS -28.7000 154.000 main 38 38 O________O____ jtwc_sh SH011949 -28.7000 154.000 -1 -28.7000 154.000 TC 8 108
1948193S25153 1949 44 SP EA NOT_NAMED 1948-07-14 09:00:00 TS -28.8503 154.472 main 87 87 P________P____ SH011949 -28.8503 154.472 -1 -28.8503 154.472 TC 8 111
1948193S25153 1949 44 SP EA NOT_NAMED 1948-07-14 12:00:00 TS -29.0000 154.900 main 126 126 O________O____ jtwc_sh SH011949 -29.0000 154.900 -1 -29.0000 154.900 TC 6 111
1948193S25153 1949 44 SP EA NOT_NAMED 1948-07-14 15:00:00 TS -29.0772 155.138 main 147 147 P________P____ SH011949 -29.0772 155.138 -1 -29.0772 155.138 TC 4 120
1948193S25153 1949 44 SP EA NOT_NAMED 1948-07-14 18:00:00 TS -29.2000 155.300 main 168 168 O________O____ jtwc_sh SH011949 -29.2000 155.300 -1 -29.2000 155.300 TC 5 138
1948193S25153 1949 44 SP EA NOT_NAMED 1948-07-14 21:00:00 TS -29.4400 155.508 main 192 192 P________P____ SH011949 -29.4400 155.508 -1 -29.4400 155.508 TC 7 150
1948193S25153 1949 44 SP EA NOT_NAMED 1948-07-15 00:00:00 TS -29.8000 155.700 main 226 226 O________O____ jtwc_sh SH011949 -29.8000 155.700 -1 -29.8000 155.700 TC 9 159
1948193S25153 1949 44 SP EA NOT_NAMED 1948-07-15 03:00:00 TS -30.2625 155.865 main 253 253 P________P____ SH011949 -30.2625 155.865 -1 -30.2625 155.865 TC 10 165
1948193S25153 1949 44 SP EA NOT_NAMED 1948-07-15 06:00:00 TS -30.8000 156.000 main 277 276 O________O____ jtwc_sh SH011949 -30.8000 156.000 -1 -30.8000 156.000 TC 11 168
1948193S25153 1949 44 SP EA NOT_NAMED 1948-07-15 09:00:00 TS -31.3500 156.130 main 285 285 P________P____ SH011949 -31.3500 156.130 -1 -31.3500 156.130 TC 11 171
1948193S25153 1949 44 SP EA NOT_NAMED 1948-07-15 12:00:00 TS -31.9000 156.200 main 306 306 O________O____ jtwc_sh SH011949 -31.9000 156.200 -1 -31.9000 156.200 TC 11 177
1948193S25153 1949 44 SP EA NOT_NAMED 1948-07-15 15:00:00 TS -32.4000 156.188 main 325 325 P________P____ SH011949 -32.4000 156.188 -1 -32.4000 156.188 TC 10 185
1948193S25153 1949 44 SP EA NOT_NAMED 1948-07-15 18:00:00 TS -32.9000 156.100 main 332 332 O________O____ jtwc_sh SH011949 -32.9000 156.100 -1 -32.9000 156.100 TC 11 190
1948193S25153 1949 44 SP EA NOT_NAMED 1948-07-15 21:00:00 TS -33.4376 155.963 main 344 339 P________P____ SH011949 -33.4376 155.963 -1 -33.4376 155.963 TC 11 193
1948193S25153 1949 44 SP EA NOT_NAMED 1948-07-16 00:00:00 TS -34.0000 155.800 main 354 O________O____ jtwc_sh SH011949 -34.0000 155.800 -1 -34.0000 155.800 TC 12 194

Digital Typhoon Data and Search

About IBTrACS Database

This database is a web-friendly format of International Best Track Archive for Climate Stewardship (IBTrACS), a global best track data archive curated by NOAA dating back to 1842.

Updated: 2021-10-19